Time;durP1;ratioP1;P1;durP2;ratioP2;P2;SDS_P1;SDS_P2;PMS_P1;PMS_P2;Temp;Humidity;BMP_temperature;BMP_pressure;BME280_temperature;BME280_humidity;BME280_pressure;Samples;Min_cycle;Max_cycle;Signal;HPM_P1;HPM_P2
2023/12/09 00:00:28;;;;;;;35.83;17.03;;;;;;;;;;6280115;22;20150;-53
2023/12/09 00:02:55;;;;;;;40.07;18.77;;;;;;;;;;6279665;22;20165;-52
2023/12/09 00:05:21;;;;;;;34.57;17.83;;;;;;;;;;6279046;22;20629;-55
2023/12/09 00:07:47;;;;;;;37.77;19.20;;;;;;;;;;6279607;22;20173;-52
2023/12/09 00:10:14;;;;;;;40.83;19.87;;;;;;;;;;6306639;22;20134;-51
2023/12/09 00:12:40;;;;;;;38.63;18.80;;;;;;;;;;6280758;22;20389;-56
2023/12/09 00:15:06;;;;;;;40.93;19.23;;;;;;;;;;6308865;22;20514;-61
2023/12/09 00:17:34;;;;;;;50.30;21.63;;;;;;;;;;6283908;22;20188;-60
2023/12/09 00:19:59;;;;;;;38.23;18.13;;;;;;;;;;6308262;22;20143;-55
2023/12/09 00:22:25;;;;;;;33.90;18.13;;;;;;;;;;6280534;22;20143;-53
2023/12/09 00:24:59;;;;;;;41.10;19.67;;;;;;;;;;6281311;22;20144;-51
2023/12/09 00:27:26;;;;;;;38.77;17.37;;;;;;;;;;6281381;22;20171;-50
2023/12/09 00:29:52;;;;;;;38.80;17.70;;;;;;;;;;6281908;22;20140;-53
2023/12/09 00:32:18;;;;;;;35.87;17.73;;;;;;;;;;6280202;22;20155;-56
2023/12/09 00:34:44;;;;;;;48.20;19.47;;;;;;;;;;6278439;22;20663;-55
2023/12/09 00:37:11;;;;;;;35.63;18.43;;;;;;;;;;6279272;22;20195;-51
2023/12/09 00:39:37;;;;;;;35.23;17.50;;;;;;;;;;6280003;22;20144;-50
2023/12/09 00:42:05;;;;;;;35.40;16.93;;;;;;;;;;6280791;22;20186;-54
2023/12/09 00:44:31;;;;;;;38.70;17.83;;;;;;;;;;6279893;22;20155;-55
2023/12/09 00:46:57;;;;;;;35.23;17.07;;;;;;;;;;6280772;22;20163;-51
2023/12/09 00:49:23;;;;;;;33.30;16.80;;;;;;;;;;6280442;22;20220;-54
2023/12/09 00:51:49;;;;;;;36.10;16.93;;;;;;;;;;6280912;22;20135;-54
2023/12/09 00:54:15;;;;;;;36.27;17.57;;;;;;;;;;6280221;22;20159;-51
2023/12/09 00:56:41;;;;;;;36.40;17.43;;;;;;;;;;6281359;22;20136;-51
2023/12/09 00:59:08;;;;;;;33.13;17.20;;;;;;;;;;6282474;22;20151;-56
2023/12/09 01:01:34;;;;;;;33.00;15.70;;;;;;;;;;6281129;22;20225;-52
2023/12/09 01:04:00;;;;;;;36.80;17.43;;;;;;;;;;6281205;22;20155;-52
2023/12/09 01:06:27;;;;;;;41.43;18.20;;;;;;;;;;6280815;22;20162;-51
2023/12/09 01:08:53;;;;;;;38.03;17.57;;;;;;;;;;6307363;22;20674;-54
2023/12/09 01:11:21;;;;;;;36.07;17.03;;;;;;;;;;6281680;22;20128;-51
2023/12/09 01:13:47;;;;;;;39.33;17.20;;;;;;;;;;6281593;22;20132;-51
2023/12/09 01:16:13;;;;;;;34.40;15.83;;;;;;;;;;6280653;22;20410;-52
2023/12/09 01:18:39;;;;;;;31.10;15.27;;;;;;;;;;6282293;22;20158;-53
2023/12/09 01:21:05;;;;;;;34.53;16.33;;;;;;;;;;6281079;22;20219;-54
2023/12/09 01:23:31;;;;;;;34.47;16.00;;;;;;;;;;6281511;22;20140;-52
2023/12/09 01:25:57;;;;;;;35.73;17.33;;;;;;;;;;6280372;22;20550;-50
2023/12/09 01:28:23;;;;;;;37.23;16.97;;;;;;;;;;6280628;22;20242;-50
2023/12/09 01:30:49;;;;;;;36.63;16.53;;;;;;;;;;6280067;22;20561;-54
2023/12/09 01:33:15;;;;;;;33.20;16.33;;;;;;;;;;6307123;22;20151;-53
2023/12/09 01:35:41;;;;;;;35.57;16.97;;;;;;;;;;6307566;22;20494;-53
2023/12/09 01:38:07;;;;;;;36.47;15.90;;;;;;;;;;6274998;22;20188;-53
2023/12/09 01:40:33;;;;;;;33.97;16.63;;;;;;;;;;6275101;22;20156;-54
2023/12/09 01:42:59;;;;;;;35.40;16.17;;;;;;;;;;6275090;22;20158;-51
2023/12/09 01:45:25;;;;;;;34.37;16.23;;;;;;;;;;6276098;22;20148;-52
2023/12/09 01:47:51;;;;;;;34.63;17.03;;;;;;;;;;6275644;22;20474;-53
2023/12/09 01:50:18;;;;;;;37.87;15.80;;;;;;;;;;6277592;22;20133;-53
2023/12/09 01:52:44;;;;;;;34.00;14.97;;;;;;;;;;6276833;22;20140;-56
2023/12/09 01:55:10;;;;;;;35.43;16.00;;;;;;;;;;6276410;22;20198;-55
2023/12/09 01:57:37;;;;;;;37.97;16.27;;;;;;;;;;6275876;22;20172;-53
2023/12/09 02:00:03;;;;;;;32.23;14.93;;;;;;;;;;6277030;22;20452;-53
2023/12/09 02:02:30;;;;;;;38.40;16.40;;;;;;;;;;6275297;22;20159;-52
2023/12/09 02:04:56;;;;;;;36.47;15.17;;;;;;;;;;6276626;22;20534;-50
2023/12/09 02:07:22;;;;;;;34.93;15.00;;;;;;;;;;6275625;22;20660;-55
2023/12/09 02:09:48;;;;;;;33.97;15.53;;;;;;;;;;6277064;22;20736;-54
2023/12/09 02:12:37;;;;;;;24.37;13.50;;;;;;;;;;6276167;22;20231;-54
2023/12/09 02:15:06;;;;;;;32.00;15.17;;;;;;;;;;6276391;22;20150;-53
2023/12/09 02:17:34;;;;;;;31.77;14.90;;;;;;;;;;6277341;22;20144;-51
2023/12/09 02:20:01;;;;;;;30.03;15.63;;;;;;;;;;6277394;22;20148;-53
2023/12/09 02:22:27;;;;;;;32.93;15.27;;;;;;;;;;6276029;22;20205;-53
2023/12/09 02:24:53;;;;;;;40.30;16.73;;;;;;;;;;6276268;22;20140;-52
2023/12/09 02:27:25;;;;;;;37.13;15.37;;;;;;;;;;6276650;22;20159;-54
2023/12/09 02:29:55;;;;;;;39.50;16.97;;;;;;;;;;6274919;22;20211;-49
2023/12/09 02:32:22;;;;;;;34.60;15.70;;;;;;;;;;6275181;22;20215;-49
2023/12/09 02:34:49;;;;;;;37.53;16.97;;;;;;;;;;6274945;22;20549;-53
2023/12/09 02:37:16;;;;;;;39.27;15.90;;;;;;;;;;6275499;22;20207;-52
2023/12/09 02:39:42;;;;;;;42.03;17.60;;;;;;;;;;6276421;22;20128;-51
2023/12/09 02:42:10;;;;;;;37.33;15.80;;;;;;;;;;6276088;22;20155;-52
2023/12/09 02:44:36;;;;;;;37.73;16.93;;;;;;;;;;6277002;22;20518;-50
2023/12/09 02:47:03;;;;;;;35.60;14.57;;;;;;;;;;6279332;22;20565;-53
2023/12/09 02:49:28;;;;;;;35.23;16.67;;;;;;;;;;6280537;22;20129;-52
2023/12/09 02:51:55;;;;;;;35.73;15.70;;;;;;;;;;6279875;22;20136;-53
2023/12/09 02:54:21;;;;;;;37.43;16.30;;;;;;;;;;6280533;22;20510;-54
2023/12/09 02:56:47;;;;;;;40.40;17.83;;;;;;;;;;6279764;22;20140;-53
2023/12/09 02:59:13;;;;;;;39.27;17.83;;;;;;;;;;6280721;22;20128;-53
2023/12/09 03:01:39;;;;;;;37.77;16.13;;;;;;;;;;6279493;22;20544;-51
2023/12/09 03:04:05;;;;;;;39.23;15.60;;;;;;;;;;6280490;22;20144;-51
2023/12/09 03:06:31;;;;;;;39.70;16.93;;;;;;;;;;6279330;22;20179;-50
2023/12/09 03:08:57;;;;;;;37.60;16.53;;;;;;;;;;6280273;22;20129;-51
2023/12/09 03:11:23;;;;;;;39.33;16.43;;;;;;;;;;6278862;22;20514;-49
2023/12/09 03:13:49;;;;;;;41.67;18.13;;;;;;;;;;6278234;22;20163;-56
2023/12/09 03:16:15;;;;;;;38.20;16.77;;;;;;;;;;6278288;22;20128;-53
2023/12/09 03:18:41;;;;;;;41.37;18.30;;;;;;;;;;6279795;22;20148;-53
2023/12/09 03:21:07;;;;;;;39.23;16.70;;;;;;;;;;6278434;22;20155;-51
2023/12/09 03:23:33;;;;;;;39.17;15.67;;;;;;;;;;6279571;22;20140;-53
2023/12/09 03:25:59;;;;;;;41.30;18.23;;;;;;;;;;6278532;22;20775;-55
2023/12/09 03:28:25;;;;;;;38.20;16.60;;;;;;;;;;6279490;22;20289;-52
2023/12/09 03:30:51;;;;;;;38.60;16.53;;;;;;;;;;6278651;22;20137;-52
2023/12/09 03:33:17;;;;;;;35.87;16.93;;;;;;;;;;6278862;22;20144;-54
2023/12/09 03:35:43;;;;;;;42.17;16.90;;;;;;;;;;6279313;22;20147;-53
2023/12/09 03:38:09;;;;;;;37.73;17.57;;;;;;;;;;6278723;22;20554;-51
2023/12/09 03:40:35;;;;;;;39.13;16.43;;;;;;;;;;6278524;22;20140;-51
2023/12/09 03:43:02;;;;;;;37.27;16.40;;;;;;;;;;6278775;22;20213;-50
2023/12/09 03:45:28;;;;;;;35.07;16.67;;;;;;;;;;6280327;22;20420;-54
2023/12/09 03:47:54;;;;;;;41.27;17.73;;;;;;;;;;6279777;22;20577;-53
2023/12/09 03:50:20;;;;;;;38.43;16.90;;;;;;;;;;6278410;22;20249;-54
2023/12/09 03:52:46;;;;;;;34.70;16.53;;;;;;;;;;6280337;22;20462;-56
2023/12/09 03:55:15;;;;;;;42.97;16.47;;;;;;;;;;6279287;22;20163;-54
2023/12/09 03:57:41;;;;;;;38.13;16.23;;;;;;;;;;6278042;22;20144;-50
2023/12/09 04:00:08;;;;;;;45.87;18.30;;;;;;;;;;6277881;22;20159;-55
2023/12/09 04:02:34;;;;;;;41.67;18.17;;;;;;;;;;6278576;22;20286;-53
2023/12/09 04:05:00;;;;;;;38.63;16.53;;;;;;;;;;6278021;22;20152;-56
2023/12/09 04:07:26;;;;;;;40.03;18.20;;;;;;;;;;6277752;22;20254;-53
2023/12/09 04:09:52;;;;;;;35.93;17.80;;;;;;;;;;6276969;22;20132;-56
2023/12/09 04:12:19;;;;;;;39.33;17.93;;;;;;;;;;6276935;22;20476;-56
2023/12/09 04:14:45;;;;;;;35.27;15.53;;;;;;;;;;6276619;22;20199;-54
2023/12/09 04:17:12;;;;;;;41.93;16.93;;;;;;;;;;6276896;22;20152;-56
2023/12/09 04:19:38;;;;;;;35.83;16.83;;;;;;;;;;6278116;22;20133;-56
2023/12/09 04:22:04;;;;;;;44.23;18.63;;;;;;;;;;6278647;22;20155;-56
2023/12/09 04:24:30;;;;;;;37.30;16.97;;;;;;;;;;6278626;22;20144;-53
2023/12/09 04:26:56;;;;;;;39.70;17.27;;;;;;;;;;6278553;22;20168;-54
2023/12/09 04:32:29;;;;;;;38.10;16.10;;;;;;;;;;6278065;22;20158;-53
2023/12/09 04:34:56;;;;;;;37.73;17.30;;;;;;;;;;6277922;22;20407;-51
2023/12/09 04:37:22;;;;;;;42.67;19.73;;;;;;;;;;6277065;22;20188;-50
2023/12/09 04:39:49;;;;;;;43.27;18.20;;;;;;;;;;6278529;22;20156;-54
2023/12/09 04:42:15;;;;;;;44.00;18.33;;;;;;;;;;6277729;22;20147;-51
2023/12/09 04:44:41;;;;;;;39.37;17.13;;;;;;;;;;6276959;22;20144;-51
2023/12/09 04:47:07;;;;;;;38.63;17.40;;;;;;;;;;6277096;22;20182;-49
2023/12/09 04:49:33;;;;;;;34.30;16.87;;;;;;;;;;6277790;22;20140;-54
2023/12/09 04:51:59;;;;;;;42.83;19.60;;;;;;;;;;6277478;22;20197;-52
2023/12/09 04:54:25;;;;;;;40.83;18.10;;;;;;;;;;6278287;22;20158;-53
2023/12/09 04:56:51;;;;;;;39.93;18.00;;;;;;;;;;6278634;22;20128;-50
2023/12/09 04:59:25;;;;;;;35.77;18.10;;;;;;;;;;6277145;22;20140;-53
2023/12/09 05:01:51;;;;;;;41.53;18.70;;;;;;;;;;6277297;22;20149;-55
2023/12/09 05:04:17;;;;;;;47.20;19.33;;;;;;;;;;6277573;22;20171;-49
2023/12/09 05:06:43;;;;;;;42.07;18.27;;;;;;;;;;6277273;22;20427;-51
2023/12/09 05:09:10;;;;;;;44.43;19.60;;;;;;;;;;6276529;22;20167;-50
2023/12/09 05:11:36;;;;;;;53.63;18.80;;;;;;;;;;6275331;22;20538;-51
2023/12/09 05:14:02;;;;;;;39.83;18.33;;;;;;;;;;6272607;22;20549;-51
2023/12/09 05:16:28;;;;;;;41.13;18.70;;;;;;;;;;6274809;22;20144;-52
2023/12/09 05:18:55;;;;;;;38.77;17.47;;;;;;;;;;6277539;22;20144;-55
2023/12/09 05:21:21;;;;;;;42.20;17.87;;;;;;;;;;6276165;22;20155;-56
2023/12/09 05:23:47;;;;;;;39.33;17.80;;;;;;;;;;6276248;22;20178;-52
2023/12/09 05:26:42;;;;;;;42.50;19.00;;;;;;;;;;6276564;22;20441;-53
2023/12/09 05:29:09;;;;;;;40.50;17.17;;;;;;;;;;6272264;22;20235;-51
2023/12/09 05:31:35;;;;;;;46.40;18.50;;;;;;;;;;6276810;22;20167;-54
2023/12/09 05:34:01;;;;;;;38.10;17.83;;;;;;;;;;6276344;22;20152;-53
2023/12/09 05:36:28;;;;;;;45.27;18.53;;;;;;;;;;6277078;22;20603;-47
2023/12/09 05:38:56;;;;;;;42.03;19.33;;;;;;;;;;6276151;22;20196;-50
2023/12/09 05:41:22;;;;;;;42.33;18.43;;;;;;;;;;6277445;22;20237;-48
2023/12/09 05:43:48;;;;;;;41.27;18.47;;;;;;;;;;6276056;22;20489;-56
2023/12/09 05:46:18;;;;;;;46.70;19.53;;;;;;;;;;6277252;22;20140;-49
2023/12/09 05:48:45;;;;;;;45.77;19.13;;;;;;;;;;6276778;22;20688;-53
2023/12/09 05:51:12;;;;;;;43.10;19.73;;;;;;;;;;6277888;22;20149;-52
2023/12/09 05:53:38;;;;;;;48.07;17.73;;;;;;;;;;6276905;22;20140;-54
2023/12/09 05:56:04;;;;;;;44.57;19.97;;;;;;;;;;6277428;22;20135;-54
2023/12/09 05:58:30;;;;;;;43.07;19.57;;;;;;;;;;6277853;22;20427;-51
2023/12/09 06:00:57;;;;;;;45.80;19.17;;;;;;;;;;6277457;22;20131;-52
2023/12/09 06:03:23;;;;;;;38.37;18.67;;;;;;;;;;6276911;22;20152;-55
2023/12/09 06:05:49;;;;;;;48.93;21.40;;;;;;;;;;6276440;22;20583;-49
2023/12/09 06:08:15;;;;;;;51.03;19.60;;;;;;;;;;6277005;22;20152;-50
2023/12/09 06:10:41;;;;;;;43.63;18.80;;;;;;;;;;6276666;22;20136;-53
2023/12/09 06:13:07;;;;;;;50.10;20.30;;;;;;;;;;6275949;22;20144;-52
2023/12/09 06:15:33;;;;;;;47.17;20.33;;;;;;;;;;6274973;22;20137;-52
2023/12/09 06:17:59;;;;;;;41.83;19.03;;;;;;;;;;6275828;22;20187;-52
2023/12/09 06:20:25;;;;;;;40.33;18.50;;;;;;;;;;6276616;22;20144;-50
2023/12/09 06:22:55;;;;;;;40.93;18.87;;;;;;;;;;6276196;22;20514;-52
2023/12/09 06:25:21;;;;;;;38.60;17.90;;;;;;;;;;6276147;22;20144;-51
2023/12/09 06:27:47;;;;;;;37.20;18.17;;;;;;;;;;6276616;22;20203;-54
2023/12/09 06:30:14;;;;;;;48.37;20.40;;;;;;;;;;6276083;22;20140;-51
2023/12/09 06:32:41;;;;;;;35.87;19.20;;;;;;;;;;6275755;22;20536;-52
2023/12/09 06:35:08;;;;;;;36.30;17.63;;;;;;;;;;6277253;22;20136;-55
2023/12/09 06:37:34;;;;;;;41.53;18.90;;;;;;;;;;6275887;22;20211;-51
2023/12/09 06:40:00;;;;;;;44.37;18.93;;;;;;;;;;6276055;22;20136;-52
2023/12/09 06:42:26;;;;;;;41.60;18.80;;;;;;;;;;6275766;22;20143;-53
2023/12/09 06:44:52;;;;;;;36.37;17.97;;;;;;;;;;6275920;22;20225;-55
2023/12/09 06:47:18;;;;;;;37.03;17.83;;;;;;;;;;6276519;22;20211;-55
2023/12/09 06:49:45;;;;;;;40.80;18.83;;;;;;;;;;6277848;22;20132;-55
2023/12/09 06:52:11;;;;;;;42.73;18.20;;;;;;;;;;6275766;22;20141;-55
2023/12/09 06:54:37;;;;;;;40.03;19.67;;;;;;;;;;6276440;22;20141;-52
2023/12/09 06:57:04;;;;;;;41.40;18.83;;;;;;;;;;6276574;22;20144;-54
2023/12/09 06:59:30;;;;;;;47.43;19.73;;;;;;;;;;6275748;22;20156;-53
2023/12/09 07:01:56;;;;;;;32.53;16.30;;;;;;;;;;6276660;22;20128;-54
2023/12/09 07:04:22;;;;;;;33.60;17.17;;;;;;;;;;6274045;22;20148;-50
2023/12/09 07:06:48;;;;;;;38.77;17.93;;;;;;;;;;6273581;22;20148;-51
2023/12/09 07:09:14;;;;;;;37.97;18.63;;;;;;;;;;6272753;22;20232;-53
2023/12/09 07:11:40;;;;;;;32.57;16.27;;;;;;;;;;6273139;22;20405;-54
2023/12/09 07:14:06;;;;;;;44.33;17.93;;;;;;;;;;6273440;22;20185;-56
2023/12/09 07:16:32;;;;;;;42.90;17.30;;;;;;;;;;6271478;22;20140;-55
2023/12/09 07:18:59;;;;;;;39.23;18.20;;;;;;;;;;6274276;22;20153;-52
2023/12/09 07:21:28;;;;;;;32.67;17.37;;;;;;;;;;6274041;22;20180;-49
2023/12/09 07:23:55;;;;;;;34.43;16.23;;;;;;;;;;6273321;22;20145;-52
2023/12/09 07:26:21;;;;;;;30.07;16.77;;;;;;;;;;6275707;22;20137;-52
2023/12/09 07:28:47;;;;;;;35.80;17.10;;;;;;;;;;6276190;22;20156;-51
2023/12/09 07:31:15;;;;;;;42.80;18.00;;;;;;;;;;6275356;22;20207;-49
2023/12/09 07:33:41;;;;;;;36.77;16.70;;;;;;;;;;6278306;22;20192;-56
2023/12/09 07:36:07;;;;;;;34.63;17.83;;;;;;;;;;6277377;22;20144;-53
2023/12/09 07:38:33;;;;;;;31.37;15.83;;;;;;;;;;6276968;22;20249;-52
2023/12/09 07:40:59;;;;;;;26.80;14.70;;;;;;;;;;6275615;22;20180;-52
2023/12/09 07:43:26;;;;;;;32.40;17.17;;;;;;;;;;6275455;22;20140;-52
2023/12/09 07:45:52;;;;;;;43.73;17.87;;;;;;;;;;6274386;22;20148;-51
2023/12/09 07:48:18;;;;;;;33.33;16.03;;;;;;;;;;6274381;22;20565;-52
2023/12/09 07:50:44;;;;;;;31.70;15.63;;;;;;;;;;6275036;22;20194;-53
2023/12/09 07:53:10;;;;;;;29.33;16.17;;;;;;;;;;6275830;22;20502;-54
2023/12/09 07:55:36;;;;;;;35.17;16.03;;;;;;;;;;6275125;22;20140;-53
2023/12/09 07:58:03;;;;;;;26.40;14.73;;;;;;;;;;6274962;22;20144;-54
2023/12/09 08:00:31;;;;;;;28.03;15.20;;;;;;;;;;6275827;22;20132;-54
2023/12/09 08:03:04;;;;;;;30.13;15.03;;;;;;;;;;6277269;22;20163;-49
2023/12/09 08:05:35;;;;;;;31.37;15.50;;;;;;;;;;6250493;22;20152;-52
2023/12/09 08:08:03;;;;;;;29.53;14.37;;;;;;;;;;6275227;22;20160;-50
2023/12/09 08:10:29;;;;;;;28.00;14.90;;;;;;;;;;6275005;22;20152;-54
2023/12/09 08:12:57;;;;;;;31.80;14.37;;;;;;;;;;6274731;22;20150;-50
2023/12/09 08:15:23;;;;;;;39.53;15.03;;;;;;;;;;6274899;22;20144;-56
2023/12/09 08:17:50;;;;;;;24.77;13.97;;;;;;;;;;6275179;22;20160;-55
2023/12/09 08:20:18;;;;;;;30.70;15.93;;;;;;;;;;6275604;22;20221;-56
2023/12/09 08:22:44;;;;;;;31.67;15.70;;;;;;;;;;6273816;22;20156;-55
2023/12/09 08:25:12;;;;;;;25.37;14.27;;;;;;;;;;6273184;22;20156;-51
2023/12/09 08:27:39;;;;;;;25.97;13.73;;;;;;;;;;6273930;22;20168;-52
2023/12/09 08:30:10;;;;;;;28.13;14.10;;;;;;;;;;6249275;22;20141;-56
2023/12/09 08:32:36;;;;;;;34.17;16.23;;;;;;;;;;6272816;22;20225;-54
2023/12/09 08:35:04;;;;;;;23.57;12.50;;;;;;;;;;6270990;22;20172;-55
2023/12/09 08:37:30;;;;;;;21.63;12.87;;;;;;;;;;6278913;22;20617;-55
2023/12/09 08:39:57;;;;;;;24.30;12.53;;;;;;;;;;6305731;22;20517;-54
2023/12/09 08:42:23;;;;;;;34.33;13.73;;;;;;;;;;6278440;22;20155;-52
2023/12/09 08:44:49;;;;;;;26.93;14.17;;;;;;;;;;6305838;22;20124;-56
2023/12/09 08:47:16;;;;;;;28.50;13.93;;;;;;;;;;6277528;22;20171;-49
2023/12/09 08:49:43;;;;;;;29.30;12.63;;;;;;;;;;6278795;22;20139;-54
2023/12/09 08:52:09;;;;;;;25.77;12.70;;;;;;;;;;6277022;22;20201;-56
2023/12/09 08:54:38;;;;;;;24.33;13.50;;;;;;;;;;6276686;22;20242;-52
2023/12/09 08:57:05;;;;;;;24.30;12.13;;;;;;;;;;6278635;22;20140;-55
2023/12/09 08:59:32;;;;;;;21.03;12.17;;;;;;;;;;6277390;22;20639;-53
2023/12/09 09:01:58;;;;;;;24.40;11.47;;;;;;;;;;6278369;22;20216;-52
2023/12/09 09:04:24;;;;;;;32.80;14.33;;;;;;;;;;6277745;22;20454;-53
2023/12/09 09:06:51;;;;;;;27.73;13.60;;;;;;;;;;6277810;22;20213;-54
2023/12/09 09:09:17;;;;;;;20.37;10.97;;;;;;;;;;6277784;22;20156;-53
2023/12/09 09:11:43;;;;;;;24.43;13.67;;;;;;;;;;6278660;22;20212;-55
2023/12/09 09:14:10;;;;;;;30.97;12.17;;;;;;;;;;6304964;22;20145;-56
2023/12/09 09:16:38;;;;;;;24.80;12.87;;;;;;;;;;6277285;22;20139;-52
2023/12/09 09:19:06;;;;;;;27.83;14.73;;;;;;;;;;6302754;22;20127;-54
2023/12/09 09:21:33;;;;;;;29.10;12.73;;;;;;;;;;6278230;22;20189;-53
2023/12/09 09:23:59;;;;;;;22.87;12.43;;;;;;;;;;6277313;22;20252;-51
2023/12/09 09:26:25;;;;;;;27.20;12.83;;;;;;;;;;6278529;22;20156;-56
2023/12/09 09:28:51;;;;;;;24.07;12.47;;;;;;;;;;6277247;22;20199;-54
2023/12/09 09:31:18;;;;;;;21.07;12.17;;;;;;;;;;6304189;22;20572;-54
2023/12/09 09:33:45;;;;;;;23.97;13.37;;;;;;;;;;6277563;22;20174;-52
2023/12/09 09:36:12;;;;;;;26.70;12.53;;;;;;;;;;6277243;22;20507;-54
2023/12/09 09:38:40;;;;;;;26.43;12.70;;;;;;;;;;6305801;22;20356;-56
2023/12/09 09:41:11;;;;;;;24.30;13.47;;;;;;;;;;6277687;22;20147;-54
2023/12/09 09:43:39;;;;;;;28.37;11.90;;;;;;;;;;6278844;22;20544;-51
2023/12/09 09:46:07;;;;;;;21.20;11.73;;;;;;;;;;6305202;22;20185;-53
2023/12/09 09:48:39;;;;;;;22.33;11.60;;;;;;;;;;6304117;22;20250;-54
2023/12/09 09:51:07;;;;;;;24.20;12.30;;;;;;;;;;6277784;22;20136;-56
2023/12/09 09:53:46;;;;;;;24.60;11.93;;;;;;;;;;6276246;22;20205;-53
2023/12/09 09:56:12;;;;;;;20.17;11.57;;;;;;;;;;6300043;22;20130;-53
2023/12/09 09:58:40;;;;;;;21.13;12.80;;;;;;;;;;6274044;22;20139;-51
2023/12/09 10:01:10;;;;;;;23.37;11.37;;;;;;;;;;6271296;22;20212;-54
2023/12/09 10:03:37;;;;;;;21.03;10.60;;;;;;;;;;6297325;22;20124;-50
2023/12/09 10:06:04;;;;;;;20.00;11.77;;;;;;;;;;6271142;22;20420;-55
2023/12/09 10:08:30;;;;;;;23.70;12.10;;;;;;;;;;6272944;22;20261;-50
2023/12/09 10:10:58;;;;;;;19.97;11.77;;;;;;;;;;6275417;22;20149;-54
2023/12/09 10:13:24;;;;;;;16.77;11.00;;;;;;;;;;6302219;22;20176;-52
2023/12/09 10:15:50;;;;;;;21.80;11.80;;;;;;;;;;6301105;22;20206;-54
2023/12/09 10:18:17;;;;;;;19.03;11.23;;;;;;;;;;6303327;22;20139;-53
2023/12/09 10:20:44;;;;;;;22.00;11.47;;;;;;;;;;6277929;22;20140;-54
2023/12/09 10:23:17;;;;;;;20.27;10.63;;;;;;;;;;6302680;22;20159;-53
2023/12/09 10:25:47;;;;;;;25.07;12.30;;;;;;;;;;6275219;22;20143;-54
2023/12/09 10:28:14;;;;;;;23.10;11.77;;;;;;;;;;6276900;22;20190;-52
2023/12/09 10:30:41;;;;;;;17.20;10.83;;;;;;;;;;6275950;22;20140;-54
2023/12/09 10:33:09;;;;;;;17.20;11.43;;;;;;;;;;6276010;22;20147;-52
2023/12/09 10:35:35;;;;;;;21.67;11.40;;;;;;;;;;6276644;22;20132;-53
2023/12/09 10:38:02;;;;;;;20.67;10.33;;;;;;;;;;6269775;22;20211;-54
2023/12/09 10:40:30;;;;;;;15.27;9.27;;;;;;;;;;6272733;22;20354;-52
2023/12/09 10:42:58;;;;;;;18.03;11.53;;;;;;;;;;6272865;22;20293;-51
2023/12/09 10:45:24;;;;;;;17.20;10.00;;;;;;;;;;6272115;22;20460;-50
2023/12/09 10:47:53;;;;;;;15.77;8.67;;;;;;;;;;6271959;22;20640;-49
2023/12/09 10:50:22;;;;;;;19.20;9.77;;;;;;;;;;6270283;22;20504;-51
2023/12/09 10:52:49;;;;;;;16.73;9.07;;;;;;;;;;6270497;22;20152;-54
2023/12/09 10:55:15;;;;;;;17.67;9.40;;;;;;;;;;6270349;22;20238;-53
2023/12/09 10:57:43;;;;;;;16.77;8.90;;;;;;;;;;6272484;22;20132;-50
2023/12/09 11:00:10;;;;;;;17.90;10.57;;;;;;;;;;6272016;22;20213;-52
2023/12/09 11:02:42;;;;;;;16.63;10.57;;;;;;;;;;6270830;22;20151;-54
2023/12/09 11:05:10;;;;;;;18.13;10.00;;;;;;;;;;6269485;22;20152;-53
2023/12/09 11:07:38;;;;;;;13.53;9.87;;;;;;;;;;6270550;22;20553;-51
2023/12/09 11:10:06;;;;;;;17.20;9.20;;;;;;;;;;6272645;22;20141;-54
2023/12/09 11:12:33;;;;;;;17.73;9.83;;;;;;;;;;6272966;22;20212;-54
2023/12/09 11:15:07;;;;;;;20.60;10.20;;;;;;;;;;6272427;22;20156;-55
2023/12/09 11:17:37;;;;;;;15.23;9.50;;;;;;;;;;6270388;22;20136;-56
2023/12/09 11:20:16;;;;;;;13.97;9.00;;;;;;;;;;6269078;22;20526;-55
2023/12/09 11:22:44;;;;;;;18.93;9.47;;;;;;;;;;6269317;22;20140;-51
2023/12/09 11:25:12;;;;;;;16.07;9.87;;;;;;;;;;6268697;22;20156;-55
2023/12/09 11:27:39;;;;;;;16.03;8.13;;;;;;;;;;6268753;22;20156;-53
2023/12/09 11:30:25;;;;;;;14.93;8.30;;;;;;;;;;6269140;22;20428;-53
2023/12/09 11:32:52;;;;;;;15.40;8.77;;;;;;;;;;6268887;22;20129;-54
2023/12/09 11:35:19;;;;;;;16.23;9.20;;;;;;;;;;6270531;22;20136;-51
2023/12/09 11:37:48;;;;;;;22.87;9.10;;;;;;;;;;6279276;22;20183;-50
2023/12/09 11:40:15;;;;;;;15.63;8.37;;;;;;;;;;6275109;22;20150;-54
2023/12/09 11:42:41;;;;;;;16.13;8.30;;;;;;;;;;6274411;22;20213;-55
2023/12/09 11:45:09;;;;;;;17.80;8.33;;;;;;;;;;6299360;22;20151;-54
2023/12/09 11:47:37;;;;;;;15.00;8.13;;;;;;;;;;6275893;22;20164;-54
2023/12/09 11:50:03;;;;;;;14.93;8.20;;;;;;;;;;6274957;22;20143;-51
2023/12/09 11:52:31;;;;;;;15.93;8.20;;;;;;;;;;6276135;22;20286;-55
2023/12/09 11:55:04;;;;;;;17.43;8.00;;;;;;;;;;6300820;22;20529;-51
2023/12/09 11:57:32;;;;;;;15.90;9.73;;;;;;;;;;6299974;22;20189;-50
2023/12/09 11:59:58;;;;;;;17.03;8.43;;;;;;;;;;6272599;22;20230;-54
2023/12/09 12:02:24;;;;;;;15.13;7.80;;;;;;;;;;6300946;22;20124;-56
2023/12/09 12:04:51;;;;;;;19.73;9.07;;;;;;;;;;6274742;22;20152;-56
2023/12/09 12:07:17;;;;;;;17.20;7.87;;;;;;;;;;6301727;22;20713;-53
2023/12/09 12:09:45;;;;;;;21.23;9.13;;;;;;;;;;6300591;22;20124;-54
2023/12/09 12:12:13;;;;;;;13.27;8.00;;;;;;;;;;6301802;22;20160;-53
2023/12/09 12:14:39;;;;;;;16.93;7.73;;;;;;;;;;6274257;22;20135;-60
2023/12/09 12:17:07;;;;;;;17.00;8.53;;;;;;;;;;6275102;22;20619;-60
2023/12/09 12:19:35;;;;;;;18.07;8.53;;;;;;;;;;6274758;22;20139;-57
2023/12/09 12:22:02;;;;;;;15.67;8.37;;;;;;;;;;6274840;22;20191;-54
2023/12/09 12:24:28;;;;;;;16.57;8.47;;;;;;;;;;6303927;22;20156;-56
2023/12/09 12:26:57;;;;;;;18.53;9.07;;;;;;;;;;6276294;22;20621;-54
2023/12/09 12:29:23;;;;;;;15.03;8.87;;;;;;;;;;6275780;22;20140;-55
2023/12/09 12:31:56;;;;;;;16.63;8.73;;;;;;;;;;6276255;22;20148;-53
2023/12/09 12:34:22;;;;;;;18.27;8.03;;;;;;;;;;6275314;22;20140;-50
2023/12/09 12:36:49;;;;;;;16.20;8.93;;;;;;;;;;6301796;22;20200;-54
2023/12/09 12:39:15;;;;;;;16.57;7.90;;;;;;;;;;6274301;22;20194;-54
2023/12/09 12:41:42;;;;;;;11.87;7.23;;;;;;;;;;6250324;22;20158;-54
2023/12/09 12:44:08;;;;;;;13.57;7.10;;;;;;;;;;6249918;22;20151;-54
2023/12/09 12:46:35;;;;;;;16.60;7.67;;;;;;;;;;6275457;22;20240;-51
2023/12/09 12:49:03;;;;;;;14.33;7.67;;;;;;;;;;6273868;22;20745;-52
2023/12/09 12:51:29;;;;;;;9.93;6.80;;;;;;;;;;6276695;22;20139;-53
2023/12/09 12:53:57;;;;;;;12.07;6.53;;;;;;;;;;6276332;22;20132;-54
2023/12/09 12:56:24;;;;;;;9.93;6.27;;;;;;;;;;6274161;22;20146;-52
2023/12/09 12:58:51;;;;;;;10.73;6.77;;;;;;;;;;6273536;22;20139;-53
2023/12/09 13:01:17;;;;;;;12.50;6.90;;;;;;;;;;6273150;22;20234;-51
2023/12/09 13:03:43;;;;;;;16.47;8.40;;;;;;;;;;6301200;22;20205;-48
2023/12/09 13:06:13;;;;;;;11.33;6.43;;;;;;;;;;6272576;22;20148;-54
2023/12/09 13:08:39;;;;;;;17.07;7.30;;;;;;;;;;6270489;22;20178;-57
2023/12/09 13:11:08;;;;;;;12.90;6.27;;;;;;;;;;6268739;22;20151;-52
2023/12/09 13:13:35;;;;;;;11.80;6.67;;;;;;;;;;6271569;22;20152;-56
2023/12/09 13:16:02;;;;;;;15.30;6.57;;;;;;;;;;6296939;22;20124;-54
2023/12/09 13:18:29;;;;;;;11.57;6.90;;;;;;;;;;6269631;22;20162;-54
2023/12/09 13:20:56;;;;;;;11.37;6.90;;;;;;;;;;6297267;22;20135;-52
2023/12/09 13:23:22;;;;;;;10.23;6.37;;;;;;;;;;6297234;22;20128;-55
2023/12/09 13:25:50;;;;;;;9.37;5.77;;;;;;;;;;6270077;22;20183;-54
2023/12/09 13:28:18;;;;;;;10.27;7.23;;;;;;;;;;6296653;22;20163;-54
2023/12/09 13:30:44;;;;;;;11.67;6.43;;;;;;;;;;6299041;22;20737;-51
2023/12/09 13:33:11;;;;;;;10.73;7.10;;;;;;;;;;6274004;22;20170;-56
2023/12/09 13:35:37;;;;;;;10.17;6.37;;;;;;;;;;6273902;22;20154;-54
2023/12/09 13:38:04;;;;;;;13.13;7.83;;;;;;;;;;6268971;22;20219;-53
2023/12/09 13:40:32;;;;;;;14.60;7.57;;;;;;;;;;6270126;22;20159;-52
2023/12/09 13:43:00;;;;;;;11.13;6.10;;;;;;;;;;6269291;22;20175;-51
2023/12/09 13:45:27;;;;;;;10.70;6.63;;;;;;;;;;6269179;22;20681;-55
2023/12/09 13:47:53;;;;;;;11.73;6.87;;;;;;;;;;6268875;22;20196;-56
2023/12/09 13:50:19;;;;;;;13.57;6.70;;;;;;;;;;6269736;22;20234;-52
2023/12/09 13:52:45;;;;;;;9.77;6.90;;;;;;;;;;6271057;22;20151;-52
2023/12/09 13:55:14;;;;;;;9.97;6.30;;;;;;;;;;6272361;22;20721;-52
2023/12/09 13:57:40;;;;;;;10.53;6.07;;;;;;;;;;6271637;22;20141;-58
2023/12/09 14:00:07;;;;;;;11.63;6.63;;;;;;;;;;6272141;22;20140;-56
2023/12/09 14:02:34;;;;;;;8.93;5.53;;;;;;;;;;6271210;22;20159;-54
2023/12/09 14:05:03;;;;;;;10.70;5.97;;;;;;;;;;6270162;22;20124;-55
2023/12/09 14:07:30;;;;;;;9.50;5.93;;;;;;;;;;6270380;22;20471;-54
2023/12/09 14:09:59;;;;;;;12.70;5.53;;;;;;;;;;6269121;22;20562;-55
2023/12/09 14:12:25;;;;;;;9.47;6.33;;;;;;;;;;6268631;22;20163;-56
2023/12/09 14:14:52;;;;;;;8.97;6.10;;;;;;;;;;6270124;22;20690;-51
2023/12/09 14:17:20;;;;;;;10.00;5.80;;;;;;;;;;6269291;22;20140;-54
2023/12/09 14:19:47;;;;;;;8.70;5.97;;;;;;;;;;6271276;22;20275;-53
2023/12/09 14:22:14;;;;;;;13.20;6.33;;;;;;;;;;6270063;22;20225;-55